createdAt,value
2018-11-20T00:02:44.479Z,26.93
2018-11-20T00:05:31.272Z,27.70
2018-11-20T00:08:24.853Z,27.73
2018-11-20T00:11:15.347Z,28.23
2018-11-20T00:14:04.413Z,27.73
2018-11-20T00:16:50.852Z,26.97
2018-11-20T00:19:37.444Z,26.27
2018-11-20T00:22:37.742Z,27.63
2018-11-20T00:25:18.933Z,26.07
2018-11-20T00:28:18.871Z,25.93
2018-11-20T00:31:12.740Z,29.43
2018-11-20T00:34:01.454Z,27.70
2018-11-20T00:36:48.083Z,27.60
2018-11-20T00:39:34.851Z,27.63
2018-11-20T00:42:15.743Z,28.40
2018-11-20T00:45:06.642Z,28.13
2018-11-20T00:47:53.520Z,28.33
2018-11-20T00:50:40.472Z,28.30
2018-11-20T00:53:39.875Z,28.80
2018-11-20T00:57:00.356Z,28.73
2018-11-20T00:59:49.336Z,28.30
2018-11-20T01:02:46.596Z,27.83
2018-11-20T01:05:37.957Z,28.90
2018-11-20T01:08:28.932Z,29.87
2018-11-20T01:11:23.188Z,27.77
2018-11-20T01:14:20.024Z,27.73
2018-11-20T01:17:10.868Z,26.07
2018-11-20T01:19:52.597Z,26.07
2018-11-20T01:22:55.811Z,25.93
2018-11-20T01:25:42.529Z,26.50
2018-11-20T01:28:36.527Z,26.10
2018-11-20T01:31:33.383Z,25.70
2018-11-20T01:34:18.884Z,27.33
2018-11-20T01:37:15.709Z,25.93
2018-11-20T01:39:54.067Z,25.77
2018-11-20T01:42:54.034Z,24.77
2018-11-20T01:45:47.694Z,27.63
2018-11-20T01:48:33.785Z,25.53
2018-11-20T01:51:21.901Z,25.47
2018-11-20T01:54:08.502Z,24.87
2018-11-20T01:57:08.644Z,25.30
2018-11-20T01:59:56.690Z,24.80
2018-11-20T02:02:42.987Z,24.13
2018-11-20T02:05:39.903Z,21.93
2018-11-20T02:08:28.825Z,23.47
2018-11-20T02:11:15.595Z,22.97
2018-11-20T02:14:11.903Z,22.30
2018-11-20T02:17:04.113Z,24.20
2018-11-20T02:19:55.040Z,22.17
2018-11-20T02:22:41.668Z,21.40
2018-11-20T02:25:32.765Z,21.83
2018-11-20T02:28:22.306Z,22.00
2018-11-20T02:31:08.754Z,21.23
2018-11-20T02:33:51.570Z,21.67
2018-11-20T02:36:38.415Z,21.43
2018-11-20T02:39:19.760Z,21.37
2018-11-20T02:42:06.350Z,20.60
2018-11-20T02:44:45.422Z,21.73
2018-11-20T02:47:30.236Z,22.17
2018-11-20T02:50:24.118Z,20.23
2018-11-20T02:53:12.113Z,21.57
2018-11-20T02:55:58.852Z,21.77
2018-11-20T02:58:46.922Z,21.57
2018-11-20T03:01:37.691Z,20.43
2018-11-20T03:04:25.615Z,21.80
2018-11-20T03:07:17.373Z,21.67
2018-11-20T03:10:01.375Z,22.23
2018-11-20T03:12:49.414Z,23.20
2018-11-20T03:15:35.905Z,22.07
2018-11-20T03:18:31.770Z,21.90
2018-11-20T03:21:31.855Z,21.47
2018-11-20T03:24:19.880Z,21.17
2018-11-20T03:27:16.758Z,21.57
2018-11-20T03:31:09.921Z,21.07
2018-11-20T03:34:07.491Z,22.13
2018-11-20T03:36:54.584Z,23.30
2018-11-20T03:39:48.784Z,22.10
2018-11-20T03:42:27.406Z,22.33
2018-11-20T03:45:24.244Z,22.27
2018-11-20T03:48:10.736Z,23.37
2018-11-20T03:51:04.739Z,22.60
2018-11-20T03:53:52.814Z,22.27
2018-11-20T03:56:49.544Z,22.90
2018-11-20T03:59:35.918Z,20.90
2018-11-20T04:02:26.957Z,21.97
2018-11-20T04:05:21.045Z,23.13
2018-11-20T04:08:07.583Z,22.37
2018-11-20T04:11:05.052Z,23.30
2018-11-20T04:13:58.894Z,22.90
2018-11-20T04:16:46.856Z,23.13
2018-11-20T04:19:38.749Z,22.80
2018-11-20T04:22:25.576Z,24.10
2018-11-20T04:25:19.581Z,23.40
2018-11-20T04:28:10.288Z,23.87
2018-11-20T04:31:37.280Z,26.17
2018-11-20T04:34:22.011Z,24.70
2018-11-20T04:37:14.309Z,24.67
2018-11-20T04:40:17.538Z,24.50
2018-11-20T04:43:09.221Z,24.70
2018-11-20T04:45:55.828Z,26.27
2018-11-20T04:48:43.930Z,28.67
2018-11-20T04:51:21.714Z,28.10
2018-11-20T04:54:08.450Z,28.60
2018-11-20T04:57:00.387Z,28.50
2018-11-20T04:59:47.565Z,29.33
2018-11-20T05:02:36.492Z,29.00
2018-11-20T05:05:27.633Z,32.40
2018-11-20T05:08:21.449Z,31.77
2018-11-20T05:11:12.273Z,30.87
2018-11-20T05:14:02.998Z,33.40
2018-11-20T05:17:03.037Z,35.20
2018-11-20T05:20:03.224Z,35.10
2018-11-20T05:22:46.297Z,35.70
2018-11-20T05:25:28.281Z,34.10
2018-11-20T05:28:11.117Z,33.77
2018-11-20T05:30:52.218Z,34.10
2018-11-20T05:33:48.956Z,32.47
2018-11-20T05:36:35.828Z,33.03
2018-11-20T05:39:29.236Z,32.93
2018-11-20T05:42:15.761Z,31.23
2018-11-20T05:45:02.406Z,34.57
2018-11-20T05:48:05.660Z,34.73
2018-11-20T05:50:59.589Z,31.80
2018-11-20T05:54:02.767Z,33.73
2018-11-20T05:56:41.828Z,30.77
2018-11-20T05:59:32.852Z,32.13
2018-11-20T06:02:20.883Z,31.00
2018-11-20T06:05:04.861Z,30.17
2018-11-20T06:07:47.070Z,31.17
2018-11-20T06:10:33.801Z,31.53
2018-11-20T06:13:24.914Z,27.97
2018-11-20T06:16:02.234Z,27.53
2018-11-20T06:18:57.994Z,28.67
2018-11-20T06:21:44.582Z,27.10
2018-11-20T06:24:31.670Z,25.77
2018-11-20T06:27:19.712Z,25.07
2018-11-20T06:30:06.064Z,24.00
2018-11-20T06:32:52.699Z,23.43
2018-11-20T06:35:49.520Z,22.90
2018-11-20T06:38:52.724Z,24.00
2018-11-20T06:41:46.442Z,23.17
2018-11-20T06:44:43.436Z,22.87
2018-11-20T06:47:30.073Z,23.73
2018-11-20T06:50:15.265Z,22.83
2018-11-20T06:53:03.407Z,26.77
2018-11-20T06:56:03.227Z,22.00
2018-11-20T06:58:53.800Z,22.63
2018-11-20T07:01:46.029Z,23.37
2018-11-20T07:04:32.711Z,21.30
2018-11-20T07:07:24.759Z,23.43
2018-11-20T07:10:12.723Z,22.47
2018-11-20T07:13:05.843Z,19.77
2018-11-20T07:15:57.135Z,20.17
2018-11-20T07:18:59.535Z,17.97
2018-11-20T07:21:56.509Z,17.33
2018-11-20T07:24:47.709Z,17.90
2018-11-20T07:27:39.800Z,18.53
2018-11-20T07:30:22.797Z,18.00
2018-11-20T07:33:09.487Z,17.70
2018-11-20T07:35:50.552Z,18.37
2018-11-20T07:38:44.306Z,17.40
2018-11-20T07:41:35.000Z,17.10
2018-11-20T07:44:14.849Z,16.37
2018-11-20T07:47:05.384Z,17.40
2018-11-20T07:49:56.146Z,15.17
2018-11-20T07:52:46.976Z,17.07
2018-11-20T07:55:53.014Z,16.47
2018-11-20T07:58:33.107Z,14.30
2018-11-20T08:01:29.924Z,14.90
2018-11-20T08:04:16.614Z,16.20
2018-11-20T08:07:04.588Z,16.43
2018-11-20T08:09:39.959Z,16.10
2018-11-20T08:12:27.330Z,14.03
2018-11-20T08:15:12.274Z,13.40
2018-11-20T08:18:00.264Z,14.30
2018-11-20T08:20:54.206Z,14.00
2018-11-20T08:23:45.123Z,11.90
2018-11-20T08:26:45.399Z,12.73
2018-11-20T08:29:33.470Z,13.37
2018-11-20T08:32:24.335Z,12.87
2018-11-20T08:35:11.115Z,12.07
2018-11-20T08:38:04.882Z,14.77
2018-11-20T08:41:02.090Z,13.50
2018-11-20T08:43:48.899Z,13.00
2018-11-20T08:46:35.627Z,12.97
2018-11-20T08:49:41.873Z,13.07
2018-11-20T08:52:38.852Z,13.07
2018-11-20T08:55:32.756Z,14.70
2018-11-20T08:58:39.029Z,13.23
2018-11-20T09:01:27.489Z,13.63
2018-11-20T09:04:13.820Z,12.73
2018-11-20T09:07:04.897Z,14.03
2018-11-20T09:09:51.525Z,14.07
2018-11-20T09:12:37.849Z,13.97
2018-11-20T09:15:24.674Z,13.57
2018-11-20T09:18:27.566Z,12.80
2018-11-20T09:21:18.657Z,12.80
2018-11-20T09:24:09.198Z,13.97
2018-11-20T09:26:49.669Z,14.33
2018-11-20T09:29:52.653Z,15.53
2018-11-20T09:32:55.685Z,14.20
2018-11-20T09:35:48.462Z,14.37
2018-11-20T09:38:29.723Z,13.90
2018-11-20T09:41:09.269Z,14.23
2018-11-20T09:44:01.800Z,14.57
2018-11-20T09:47:04.972Z,14.77
2018-11-20T09:49:58.960Z,15.10
2018-11-20T09:52:47.049Z,14.43
2018-11-20T09:55:40.994Z,16.47
2018-11-20T09:58:40.862Z,16.07
2018-11-20T10:01:47.325Z,16.00
2018-11-20T10:04:44.178Z,15.60
2018-11-20T10:07:44.413Z,14.73
2018-11-20T10:10:40.730Z,14.57
2018-11-20T10:13:28.799Z,16.20
2018-11-20T10:16:29.083Z,14.53
2018-11-20T10:19:15.727Z,14.33
2018-11-20T10:22:14.793Z,14.67
2018-11-20T10:25:08.524Z,13.10
2018-11-20T10:28:02.363Z,14.40
2018-11-20T10:31:08.352Z,13.53
2018-11-20T10:34:00.002Z,13.27
2018-11-20T10:36:53.863Z,13.63
2018-11-20T10:39:41.903Z,15.70
2018-11-20T10:42:39.062Z,14.80
2018-11-20T10:45:27.314Z,13.57
2018-11-20T10:48:13.833Z,14.63
2018-11-20T10:51:03.111Z,14.40
2018-11-20T10:53:57.023Z,13.63
2018-11-20T10:56:50.831Z,14.03
2018-11-20T10:59:41.758Z,14.60
2018-11-20T11:02:28.104Z,13.57
2018-11-20T11:05:14.631Z,13.77
2018-11-20T11:08:02.112Z,14.00
2018-11-20T11:10:49.909Z,14.00
2018-11-20T11:13:36.674Z,14.40
2018-11-20T11:16:23.369Z,12.83
2018-11-20T11:19:09.936Z,13.03
2018-11-20T11:21:56.685Z,13.03
2018-11-20T11:24:56.887Z,14.00
2018-11-20T11:27:53.702Z,13.33
2018-11-20T11:30:47.297Z,13.20
2018-11-20T11:33:44.061Z,14.27
2018-11-20T11:36:41.212Z,14.60
2018-11-20T11:39:47.451Z,13.97
2018-11-20T11:42:47.136Z,12.80
2018-11-20T11:45:35.250Z,13.60
2018-11-20T11:48:38.327Z,12.70
2018-11-20T11:51:15.690Z,14.00
2018-11-20T11:54:09.659Z,16.23
2018-11-20T11:57:06.645Z,14.33
2018-11-20T11:59:53.223Z,14.27
2018-11-20T12:05:41.880Z,13.23
2018-11-20T12:08:29.921Z,14.33
2018-11-20T12:11:08.948Z,14.47
2018-11-20T12:13:56.997Z,13.53
2018-11-20T12:16:43.426Z,14.03
2018-11-20T12:19:26.299Z,13.80
2018-11-20T12:22:19.926Z,14.43
2018-11-20T12:25:16.818Z,14.63
2018-11-20T12:28:03.757Z,14.00
2018-11-20T12:30:53.578Z,22.37
2018-11-20T12:33:38.293Z,15.17
2018-11-20T12:36:25.136Z,15.03
2018-11-20T12:39:12.656Z,29.47
2018-11-20T12:42:12.461Z,13.57
2018-11-20T12:45:03.499Z,14.03
2018-11-20T12:47:50.217Z,13.97
2018-11-20T12:50:38.307Z,14.40
2018-11-20T12:53:14.667Z,14.37
2018-11-20T12:55:55.676Z,12.97
2018-11-20T12:58:42.466Z,12.77
2018-11-20T13:01:19.188Z,13.27
2018-11-20T13:04:13.139Z,14.43
2018-11-20T13:07:05.220Z,13.40
2018-11-20T13:09:45.070Z,12.80
2018-11-20T13:12:38.930Z,14.03
2018-11-20T13:15:21.278Z,14.90
2018-11-20T13:18:21.270Z,13.93
2018-11-20T13:21:10.917Z,14.27
2018-11-20T13:23:55.968Z,14.70
2018-11-20T13:26:42.612Z,14.90
2018-11-20T13:29:42.765Z,14.73
2018-11-20T13:32:36.554Z,15.30
2018-11-20T13:35:23.685Z,16.13
2018-11-20T13:38:26.724Z,14.97
2018-11-20T13:41:54.978Z,15.17
2018-11-20T13:44:47.008Z,16.07
2018-11-20T13:47:33.799Z,14.37
2018-11-20T13:50:11.808Z,14.83
2018-11-20T13:52:53.380Z,13.97
2018-11-20T13:55:47.359Z,14.53
2018-11-20T13:58:39.505Z,13.57
2018-11-20T14:01:25.822Z,13.63
2018-11-20T14:04:13.851Z,13.03
2018-11-20T14:07:01.855Z,12.57
2018-11-20T14:09:48.430Z,12.93
2018-11-20T14:12:39.195Z,13.20
2018-11-20T14:15:27.292Z,12.47
2018-11-20T14:18:14.019Z,12.43
2018-11-20T14:20:56.881Z,13.03
2018-11-20T14:23:47.539Z,13.20
2018-11-20T14:26:38.170Z,13.60
2018-11-20T14:29:24.911Z,13.70
2018-11-20T14:32:31.291Z,14.10
2018-11-20T14:35:24.904Z,14.33
2018-11-20T14:38:11.311Z,13.27
2018-11-20T14:41:09.566Z,13.83
2018-11-20T14:44:06.666Z,14.70
2018-11-20T14:47:06.627Z,13.63
2018-11-20T14:50:10.415Z,13.90
2018-11-20T14:52:57.149Z,13.30
2018-11-20T14:56:03.537Z,13.60
2018-11-20T14:58:57.614Z,14.27
2018-11-20T15:01:45.620Z,15.53
2018-11-20T15:04:42.885Z,16.40
2018-11-20T15:07:39.910Z,14.10
2018-11-20T15:10:37.204Z,13.57
2018-11-20T15:13:18.368Z,15.00
2018-11-20T15:16:15.793Z,24.33
2018-11-20T15:19:03.828Z,17.77
2018-11-20T15:22:06.978Z,16.83
2018-11-20T15:24:53.618Z,18.10
2018-11-20T15:27:59.841Z,17.10
2018-11-20T15:30:40.940Z,16.60
2018-11-20T15:33:44.051Z,17.23
2018-11-20T15:36:20.505Z,15.73
2018-11-20T15:39:07.173Z,16.30
2018-11-20T15:41:55.212Z,16.27
2018-11-20T15:44:42.086Z,16.53
2018-11-20T15:47:42.185Z,15.83
2018-11-20T15:50:28.898Z,14.80
2018-11-20T15:53:17.093Z,14.00
2018-11-20T15:56:03.953Z,15.13
2018-11-20T15:58:51.999Z,15.00
2018-11-20T16:01:45.521Z,14.80
2018-11-20T16:04:51.704Z,15.83
2018-11-20T16:07:51.314Z,14.53
2018-11-20T16:10:45.056Z,15.70
2018-11-20T16:13:35.871Z,15.47
2018-11-20T16:16:22.315Z,15.37
2018-11-20T16:19:13.167Z,14.37
2018-11-20T16:22:00.033Z,14.40
2018-11-20T16:24:41.105Z,16.13
2018-11-20T16:27:34.963Z,15.67
2018-11-20T16:30:28.791Z,15.23
2018-11-20T16:33:15.337Z,14.97
2018-11-20T16:36:06.304Z,16.50
2018-11-20T16:38:52.777Z,16.87
2018-11-20T16:41:46.636Z,16.77
2018-11-20T16:44:44.424Z,15.67
2018-11-20T16:47:32.406Z,15.40
2018-11-20T16:50:19.019Z,15.03
2018-11-20T16:53:09.816Z,17.77
2018-11-20T16:55:56.177Z,15.83
2018-11-20T16:58:42.877Z,15.73
2018-11-20T17:01:49.337Z,16.27
2018-11-20T17:04:36.077Z,14.73
2018-11-20T17:07:24.607Z,14.47
2018-11-20T17:10:18.408Z,15.43
2018-11-20T17:12:56.601Z,15.50
2018-11-20T17:15:38.107Z,14.53
2018-11-20T17:18:17.024Z,15.27
2018-11-20T17:21:13.705Z,16.53
2018-11-20T17:24:04.525Z,16.40
2018-11-20T17:26:51.153Z,16.07
2018-11-20T17:29:48.065Z,15.93
2018-11-20T17:32:34.701Z,16.50
2018-11-20T17:35:21.382Z,16.93
2018-11-20T17:38:08.965Z,17.07
2018-11-20T17:40:59.795Z,19.33
2018-11-20T17:43:52.429Z,16.47
2018-11-20T17:46:40.482Z,18.80
2018-11-20T17:49:28.523Z,21.77
2018-11-20T17:52:16.571Z,23.87
2018-11-20T17:55:03.289Z,19.03
2018-11-20T17:58:06.391Z,17.63
2018-11-20T18:01:00.182Z,15.73
2018-11-20T18:03:46.878Z,15.30
2018-11-20T18:06:40.964Z,15.83
2018-11-20T18:09:34.851Z,16.93
2018-11-20T18:12:25.787Z,14.90
2018-11-20T18:15:12.212Z,15.30
2018-11-20T18:17:58.868Z,15.30
2018-11-20T18:20:52.703Z,15.47
2018-11-20T18:23:39.081Z,14.73
2018-11-20T18:26:45.032Z,14.23
2018-11-20T18:29:31.596Z,14.13
2018-11-20T18:32:24.823Z,12.07
2018-11-20T18:35:05.865Z,13.50
2018-11-20T18:37:52.450Z,12.90
2018-11-20T18:40:43.273Z,13.03
2018-11-20T18:43:37.565Z,13.37
2018-11-20T18:46:25.698Z,12.67
2018-11-20T18:49:26.120Z,24.67
2018-11-20T18:52:17.069Z,15.63
2018-11-20T18:55:10.896Z,14.20
2018-11-20T18:57:58.939Z,12.27
2018-11-20T19:00:50.187Z,14.40
2018-11-20T19:03:38.259Z,17.10
2018-11-20T19:06:26.271Z,14.20
2018-11-20T19:09:08.370Z,14.70
2018-11-20T19:12:03.379Z,13.97
2018-11-20T19:14:53.391Z,13.53
2018-11-20T19:17:41.414Z,13.70
2018-11-20T19:20:20.400Z,14.07
2018-11-20T19:23:08.460Z,13.13
2018-11-20T19:26:08.553Z,13.77
2018-11-20T19:29:02.434Z,18.60
2018-11-20T19:31:53.627Z,12.73
2018-11-20T19:34:49.096Z,14.90
2018-11-20T19:37:35.845Z,14.27
2018-11-20T19:40:33.091Z,16.93
2018-11-20T19:43:19.671Z,14.37
2018-11-20T19:46:22.864Z,15.70
2018-11-20T19:49:25.747Z,16.90
2018-11-20T19:52:13.839Z,17.63
2018-11-20T19:55:04.688Z,16.57
2018-11-20T19:57:51.700Z,16.30
2018-11-20T20:00:38.469Z,17.83
2018-11-20T20:03:25.205Z,17.13
2018-11-20T20:06:11.916Z,16.87
2018-11-20T20:09:03.093Z,23.27
2018-11-20T20:11:54.032Z,16.37
2018-11-20T20:14:37.934Z,16.33
2018-11-20T20:17:28.494Z,16.87
2018-11-20T20:20:18.724Z,15.93
2018-11-20T20:23:12.445Z,16.17
2018-11-20T20:26:08.786Z,16.17
2018-11-20T20:28:53.151Z,17.83
2018-11-20T20:31:39.948Z,17.40
2018-11-20T20:34:30.773Z,16.90
2018-11-20T20:37:18.792Z,18.10
2018-11-20T20:40:05.371Z,19.83
2018-11-20T20:42:57.454Z,18.30
2018-11-20T20:45:33.930Z,17.93
2018-11-20T20:48:27.864Z,19.37
2018-11-20T20:51:31.043Z,18.23
2018-11-20T20:54:13.077Z,19.93
2018-11-20T20:57:01.135Z,20.90
2018-11-20T20:59:51.320Z,17.90
2018-11-20T21:02:38.466Z,18.73
2018-11-20T21:05:32.226Z,18.97
2018-11-20T21:08:18.880Z,19.70
2018-11-20T21:11:10.950Z,17.27
2018-11-20T21:13:55.708Z,20.07
2018-11-20T21:16:42.220Z,19.20
2018-11-20T21:19:28.796Z,18.03
2018-11-20T21:22:15.606Z,20.07
2018-11-20T21:25:12.803Z,21.40
2018-11-20T21:28:00.829Z,20.87
2018-11-20T21:30:56.438Z,19.63
2018-11-20T21:33:59.563Z,20.47
2018-11-20T21:36:50.127Z,19.17
2018-11-20T21:39:37.000Z,21.23
2018-11-20T21:42:25.138Z,19.90
2018-11-20T21:45:15.630Z,19.33
2018-11-20T21:47:58.158Z,19.67
2018-11-20T21:50:49.089Z,21.63
2018-11-20T21:53:43.159Z,19.70
2018-11-20T21:56:33.847Z,19.63
2018-11-20T21:59:22.095Z,18.43
2018-11-20T22:02:13.232Z,20.33
2018-11-20T22:05:04.089Z,20.40
2018-11-20T22:07:41.784Z,20.00
2018-11-20T22:10:28.197Z,19.03
2018-11-20T22:13:25.749Z,19.97
2018-11-20T22:16:24.831Z,20.37
2018-11-20T22:19:17.266Z,19.87
2018-11-20T22:22:04.068Z,20.03
2018-11-20T22:24:52.464Z,20.10
2018-11-20T22:27:44.537Z,20.83
2018-11-20T22:30:28.551Z,21.03
2018-11-20T22:33:15.293Z,20.63
2018-11-20T22:35:51.397Z,21.37
2018-11-20T22:38:35.053Z,22.73
2018-11-20T22:41:23.076Z,20.40
2018-11-20T22:44:20.221Z,22.73
2018-11-20T22:47:14.095Z,21.90
2018-11-20T22:50:00.405Z,22.03
2018-11-20T22:52:41.250Z,21.77
2018-11-20T22:55:44.831Z,22.73
2018-11-20T22:58:25.716Z,22.00
2018-11-20T23:01:06.395Z,23.67
2018-11-20T23:03:53.182Z,22.40
2018-11-20T23:06:39.888Z,22.27
2018-11-20T23:09:10.924Z,21.93
2018-11-20T23:11:40.478Z,23.27
2018-11-20T23:14:09.544Z,22.20
2018-11-20T23:16:38.874Z,24.77
2018-11-20T23:19:08.013Z,21.63
2018-11-20T23:21:37.036Z,23.47
2018-11-20T23:24:06.551Z,22.03
2018-11-20T23:26:35.789Z,22.23
2018-11-20T23:29:04.608Z,23.83
2018-11-20T23:31:33.680Z,20.97
2018-11-20T23:34:02.662Z,23.10
2018-11-20T23:36:31.763Z,23.10
2018-11-20T23:39:00.830Z,21.93
2018-11-20T23:41:29.884Z,21.80
2018-11-20T23:43:58.863Z,24.13
2018-11-20T23:46:28.904Z,21.97
2018-11-20T23:48:58.013Z,22.70
2018-11-20T23:51:27.035Z,20.97
2018-11-20T23:53:56.057Z,22.43
2018-11-20T23:56:25.206Z,20.63
2018-11-20T23:58:54.250Z,22.77
